Etusivu
METAR-TAF:

METAR-TAF

Lentoasemat :

Constantine, Algeria

Leveyspiiri: 36-17N, Pituuspiiri: 006-37E, korkeus merenpinnasta: 694 m

Tämänhetkinen sää

Tämä raportti tehtiin 1 tunti ja 5 minuuttia sitten, kello 13.00 UTC
Tuuli 6 kn pohjoisen/luoteesta
Lämpötila 26°C
Kosteus 30%
Ilmanpaine 1016 hPa
Näkyvyys 10 km tai enemmän
ei pilviä alle 1500 m:ssä eikä cumulonimbus-pilviä

METAR: DABC 231300Z 34006KT CAVOK 26/07 Q1016

Aika: 15:05 (14:05 UTC)

Sääennuste

Tämä raportti tehtiin 3 tuntia ja 5 minuuttia sitten, kello 11.00 UTC
Ennuste voimassa 23. päivästä klo 12 UTC - 24. päivään klo 12 UTC
Tuuli 8 kn lännestä/luoteesta
Näkyvyys 10 km tai enemmän
ei pilviä alle 1500 m:ssä eikä cumulonimbus-pilviä
Ajoittain
23. päivästä klo 12 UTC - 23. päivään klo 19 UTC
Tuuli 14 kn pohjoisesta/koillisesta
Muutamia pilviä 3000 ft:n korkeudessa, Cumulonimbus.

TAF: DABC 231100Z 2312/2412 30008KT CAVOK TEMPO 2312/2319 02014KT FEW030CB

Säähavainnot ja -ennusteet yli 4000 lentoasemalta (METAR- ja TAF-raportit).

Käytössä olevat sääasemat on merkitty karttaan keltaisilla ja punaisilla pisteillä.

Aseta hiiri pisteen päälle nähdäksesi sääaseman nimen.

Klikkaa sitten nähdäksesi säähavainnot ja -ennusteet.

Kartan vaihtaminen: klikkaa mustalla rastilla varustettuja vihreitä pisteitä, niin voit zoomata sisään; viivalla varustettua vihreää pistettä, niin voit zoomata ulos tai vihreitä nuolia, niin pääset viereisille kartoille.


METAR-TAF: